Time;durP1;ratioP1;P1;durP2;ratioP2;P2;SDS_P1;SDS_P2;PMS_P1;PMS_P2;Temp;Humidity;BMP_temperature;BMP_pressure;BME280_temperature;BME280_humidity;BME280_pressure;Samples;Min_cycle;Max_cycle;Signal;HPM_P1;HPM_P2
2022/12/28 00:00:40;;;;;;;6.53;1.95;;;6.60;99.90;;;;;;4139207;28;20085;-78
2022/12/28 00:02:41;;;;;;;5.50;2.03;;;6.60;99.90;;;;;;4142723;28;20034;-79
2022/12/28 00:04:41;;;;;;;3.58;1.48;;;6.60;99.90;;;;;;4142979;28;20084;-79
2022/12/28 00:06:42;;;;;;;3.78;1.50;;;6.70;99.90;;;;;;4141947;28;20034;-79
2022/12/28 00:08:43;;;;;;;6.55;2.17;;;6.80;99.90;;;;;;4141678;28;20485;-78
2022/12/28 00:10:44;;;;;;;4.57;1.55;;;6.70;99.90;;;;;;4140792;28;20389;-79
2022/12/28 00:12:44;;;;;;;3.40;1.13;;;6.80;99.90;;;;;;4143100;28;20455;-80
2022/12/28 00:14:45;;;;;;;5.68;1.75;;;6.70;99.90;;;;;;4143806;28;20034;-80
2022/12/28 00:16:45;;;;;;;6.43;1.55;;;6.80;99.90;;;;;;4142321;28;20136;-79
2022/12/28 00:18:46;;;;;;;7.32;1.92;;;6.80;99.90;;;;;;4143984;28;20030;-80
2022/12/28 00:20:56;;;;;;;6.70;1.90;;;6.80;99.90;;;;;;4142862;28;20109;-80
2022/12/28 00:22:57;;;;;;;5.63;1.60;;;6.80;99.90;;;;;;4141701;28;20042;-79
2022/12/28 00:24:57;;;;;;;3.15;1.60;;;6.80;99.90;;;;;;4140483;28;20058;-79
2022/12/28 00:26:58;;;;;;;3.13;1.40;;;6.80;99.90;;;;;;4141719;28;20026;-79
2022/12/28 00:28:59;;;;;;;4.95;1.83;;;6.80;99.90;;;;;;4144076;28;20049;-79
2022/12/28 00:31:00;;;;;;;4.70;1.35;;;6.80;99.90;;;;;;4141618;28;20050;-79
2022/12/28 00:33:00;;;;;;;3.60;1.50;;;6.80;99.90;;;;;;4141960;28;20080;-79
2022/12/28 00:35:01;;;;;;;4.28;1.40;;;6.90;99.90;;;;;;4144183;28;20041;-79
2022/12/28 00:37:01;;;;;;;3.92;1.42;;;6.90;99.90;;;;;;4143173;28;20041;-80
2022/12/28 00:39:03;;;;;;;4.50;1.25;;;6.90;99.90;;;;;;4142931;28;20116;-79
2022/12/28 00:41:04;;;;;;;2.75;1.45;;;6.80;99.90;;;;;;4142360;28;20037;-80
2022/12/28 00:43:05;;;;;;;5.72;1.80;;;6.80;99.90;;;;;;4142587;28;20034;-80
2022/12/28 00:45:06;;;;;;;7.80;1.58;;;6.80;99.90;;;;;;4143082;28;20106;-78
2022/12/28 00:47:06;;;;;;;3.15;1.60;;;6.80;99.90;;;;;;4141978;28;20486;-79
2022/12/28 00:49:07;;;;;;;3.72;1.50;;;6.80;99.90;;;;;;4143520;28;20052;-73
2022/12/28 00:51:12;;;;;;;4.80;1.73;;;6.80;99.90;;;;;;4142663;28;20092;-77
2022/12/28 00:53:13;;;;;;;5.80;1.83;;;6.80;99.90;;;;;;4141197;28;20100;-78
2022/12/28 00:55:14;;;;;;;4.03;1.50;;;6.80;99.90;;;;;;4142630;28;20522;-76
2022/12/28 00:57:14;;;;;;;3.78;1.35;;;6.90;99.90;;;;;;4142227;28;20066;-77
2022/12/28 00:59:15;;;;;;;2.53;1.25;;;6.90;99.90;;;;;;4143577;28;20473;-77
2022/12/28 01:01:19;;;;;;;7.88;1.75;;;6.90;99.90;;;;;;4141302;28;20088;-77
2022/12/28 01:03:19;;;;;;;6.97;1.98;;;6.90;99.90;;;;;;4143194;28;20121;-77
2022/12/28 01:05:21;;;;;;;5.63;1.20;;;6.90;99.90;;;;;;4143109;28;20038;-76
2022/12/28 01:07:22;;;;;;;5.13;1.75;;;6.90;99.90;;;;;;4143594;28;20034;-76
2022/12/28 01:09:22;;;;;;;3.85;1.60;;;6.90;99.90;;;;;;4142641;28;20041;-77
2022/12/28 01:11:29;;;;;;;3.22;1.42;;;6.90;99.90;;;;;;4139571;28;20172;-77
2022/12/28 01:13:29;;;;;;;4.70;1.20;;;7.00;99.90;;;;;;4142679;28;20038;-76
2022/12/28 01:15:30;;;;;;;5.90;1.42;;;7.00;99.90;;;;;;4141085;28;20117;-77
2022/12/28 01:17:30;;;;;;;3.05;1.48;;;7.00;99.90;;;;;;4143703;28;20119;-76
2022/12/28 01:19:31;;;;;;;7.78;1.45;;;7.00;99.90;;;;;;4143957;28;20061;-76
2022/12/28 01:21:33;;;;;;;6.03;1.77;;;7.10;99.90;;;;;;4143124;28;20034;-76
2022/12/28 01:23:34;;;;;;;4.00;1.52;;;7.00;99.90;;;;;;4142409;28;20100;-76
2022/12/28 01:25:35;;;;;;;4.25;1.50;;;7.10;99.90;;;;;;4142426;28;20045;-76
2022/12/28 01:27:35;;;;;;;4.45;1.65;;;7.10;99.90;;;;;;4143885;28;20563;-76
2022/12/28 01:29:36;;;;;;;3.47;1.58;;;7.10;99.90;;;;;;4143591;28;20441;-76
2022/12/28 01:31:36;;;;;;;4.50;1.48;;;7.10;99.90;;;;;;4141698;28;20522;-75
2022/12/28 01:33:37;;;;;;;4.85;1.60;;;7.10;99.90;;;;;;4143241;28;20046;-75
2022/12/28 01:35:38;;;;;;;3.30;1.40;;;7.20;99.90;;;;;;4144533;28;20056;-75
2022/12/28 01:37:38;;;;;;;7.07;1.85;;;7.20;99.90;;;;;;4146823;28;20036;-74
2022/12/28 01:39:39;;;;;;;3.78;1.63;;;7.20;99.90;;;;;;4144292;28;20038;-75
2022/12/28 01:41:41;;;;;;;2.88;1.42;;;7.20;99.90;;;;;;4145157;28;20353;-76
2022/12/28 01:43:43;;;;;;;6.05;1.80;;;7.30;99.90;;;;;;4144500;28;20030;-74
2022/12/28 01:45:51;;;;;;;8.57;1.70;;;7.30;99.90;;;;;;4140420;28;20593;-75
2022/12/28 01:47:54;;;;;;;4.65;1.55;;;7.30;99.90;;;;;;4146864;28;20790;-76
2022/12/28 01:50:03;;;;;;;5.68;1.58;;;7.40;99.90;;;;;;4146585;28;20061;-76
2022/12/28 01:52:20;;;;;;;4.60;1.50;;;7.40;99.90;;;;;;4135081;28;20042;-75
2022/12/28 01:54:23;;;;;;;4.95;1.40;;;7.40;99.90;;;;;;4144172;28;20069;-75
2022/12/28 01:56:25;;;;;;;7.18;1.70;;;7.40;99.90;;;;;;4145943;28;20084;-75
2022/12/28 01:58:30;;;;;;;4.28;1.52;;;7.50;99.90;;;;;;4146571;28;20034;-75
2022/12/28 02:00:30;;;;;;;5.78;1.77;;;7.40;99.90;;;;;;4142468;28;20388;-75
2022/12/28 02:02:32;;;;;;;3.40;1.58;;;7.50;99.90;;;;;;4144192;28;20030;-75
2022/12/28 02:04:32;;;;;;;4.22;1.77;;;7.50;99.90;;;;;;4144682;28;20046;-75
2022/12/28 02:06:33;;;;;;;3.72;1.60;;;7.50;99.90;;;;;;4145549;28;20034;-75
2022/12/28 02:08:55;;;;;;;4.78;1.35;;;7.60;99.90;;;;;;4146127;28;20038;-75
2022/12/28 02:10:56;;;;;;;7.22;1.88;;;7.60;99.90;;;;;;4143439;28;20061;-75
2022/12/28 02:12:59;;;;;;;2.28;1.35;;;7.60;99.90;;;;;;4144828;28;20050;-75
2022/12/28 02:15:00;;;;;;;;;;;7.60;99.90;;;;;;4144501;28;20386;-75
2022/12/28 02:17:00;;;;;;;6.97;1.40;;;7.60;99.90;;;;;;4143259;28;19940;-75
2022/12/28 02:19:02;;;;;;;4.03;1.95;;;7.70;99.90;;;;;;4144999;28;20057;-75
2022/12/28 02:21:08;;;;;;;2.72;1.60;;;7.70;99.90;;;;;;4142986;28;20179;-75
2022/12/28 02:23:37;;;;;;;4.35;1.80;;;7.70;99.90;;;;;;4145461;28;20109;-75
2022/12/28 02:25:54;;;;;;;4.80;1.30;;;7.70;99.90;;;;;;4133712;28;20041;-74
2022/12/28 02:28:16;;;;;;;4.47;1.50;;;7.70;99.90;;;;;;4142681;28;20037;-75
2022/12/28 02:30:18;;;;;;;4.15;1.63;;;7.80;99.90;;;;;;4142895;28;20030;-74
2022/12/28 02:32:42;;;;;;;12.10;1.63;;;7.80;99.90;;;;;;4137489;28;20033;-74
2022/12/28 02:34:56;;;;;;;3.40;1.55;;;7.80;99.90;;;;;;4144510;28;20034;-74
2022/12/28 02:37:08;;;;;;;3.92;1.60;;;7.80;99.90;;;;;;4142649;28;20026;-75
2022/12/28 02:39:17;;;;;;;4.13;1.30;;;7.80;99.90;;;;;;4144395;28;20030;-75
2022/12/28 02:41:21;;;;;;;5.75;1.40;;;7.90;99.90;;;;;;4142554;28;20473;-75
2022/12/28 02:43:22;;;;;;;2.67;1.40;;;7.90;99.90;;;;;;4144621;28;20061;-75
2022/12/28 02:51:06;;;;;;;3.78;1.63;;;7.90;99.90;;;;;;4140981;28;20054;-75
2022/12/28 02:53:47;;;;;;;3.80;1.63;;;8.00;99.90;;;;;;4139316;28;20397;-75
2022/12/28 02:56:06;;;;;;;5.75;1.50;;;8.00;99.90;;;;;;4142269;28;20035;-75
2022/12/28 02:58:31;;;;;;;7.13;1.70;;;8.00;99.90;;;;;;4142783;28;20037;-76
2022/12/28 03:00:52;;;;;;;2.83;1.48;;;8.00;99.90;;;;;;4141961;28;20055;-76
2022/12/28 03:03:03;;;;;;;3.17;1.67;;;8.00;99.90;;;;;;4142297;28;20046;-75
2022/12/28 03:08:21;;;;;;;4.38;1.80;;;8.10;99.90;;;;;;4140330;28;20022;-76
2022/12/28 03:10:21;;;;;;;5.90;1.95;;;8.10;99.90;;;;;;4140049;28;20113;-76
2022/12/28 03:12:31;;;;;;;3.10;1.40;;;8.10;99.90;;;;;;4144174;28;20038;-76
2022/12/28 03:14:43;;;;;;;4.47;1.58;;;8.10;99.90;;;;;;4141643;28;20038;-75
2022/12/28 03:31:06;;;;;;;3.57;1.77;;;8.30;99.90;;;;;;4140396;28;20081;-76
2022/12/28 03:33:09;;;;;;;4.93;1.50;;;8.20;99.90;;;;;;4144385;28;20679;-76
2022/12/28 03:35:10;;;;;;;4.55;1.52;;;8.30;99.90;;;;;;4144576;28;20176;-76
2022/12/28 03:37:24;;;;;;;4.03;1.73;;;8.30;99.90;;;;;;4143112;28;20026;-75
2022/12/28 03:39:34;;;;;;;3.20;1.50;;;8.30;99.90;;;;;;4144129;28;20026;-76
2022/12/28 03:41:40;;;;;;;4.72;1.63;;;8.30;99.90;;;;;;4142141;28;20088;-76
2022/12/28 03:43:54;;;;;;;2.75;1.60;;;8.30;99.90;;;;;;4143536;28;20092;-73
2022/12/28 03:46:01;;;;;;;2.83;1.50;;;8.30;99.90;;;;;;4142878;28;20037;-76
2022/12/28 03:48:03;;;;;;;4.57;1.80;;;8.30;99.90;;;;;;4144933;28;20050;-76
2022/12/28 03:50:05;;;;;;;2.47;1.80;;;8.40;99.90;;;;;;4144505;28;20115;-75
2022/12/28 03:52:06;;;;;;;2.97;1.45;;;8.40;99.90;;;;;;4143003;28;20409;-77
2022/12/28 03:54:07;;;;;;;3.77;1.87;;;8.40;99.90;;;;;;4143119;28;20030;-76
2022/12/28 03:56:12;;;;;;;3.25;1.30;;;8.40;99.90;;;;;;4143160;28;20026;-77
2022/12/28 03:58:13;;;;;;;4.82;1.67;;;8.40;99.90;;;;;;4142546;28;20033;-71
2022/12/28 04:00:14;;;;;;;4.30;1.83;;;8.40;99.90;;;;;;4142468;28;20409;-75
2022/12/28 04:02:14;;;;;;;3.97;1.50;;;8.50;99.90;;;;;;4142826;28;20049;-76
2022/12/28 04:04:15;;;;;;;4.10;1.65;;;8.50;99.90;;;;;;4144243;28;20488;-76
2022/12/28 04:06:18;;;;;;;4.45;1.92;;;8.50;99.90;;;;;;4143749;28;20477;-76
2022/12/28 04:08:19;;;;;;;5.30;1.55;;;8.50;99.90;;;;;;4144233;28;20038;-77
2022/12/28 04:10:19;;;;;;;3.60;1.98;;;8.50;99.90;;;;;;4141788;28;20030;-77
2022/12/28 04:12:20;;;;;;;8.02;2.10;;;8.50;99.90;;;;;;4141992;28;20145;-76
2022/12/28 04:14:20;;;;;;;3.30;1.55;;;8.60;99.90;;;;;;4144240;28;20037;-77
2022/12/28 04:16:21;;;;;;;4.15;1.80;;;8.60;99.90;;;;;;4141647;28;20026;-77
2022/12/28 04:18:21;;;;;;;3.72;1.40;;;8.60;99.90;;;;;;4142189;28;20030;-77
2022/12/28 04:20:23;;;;;;;2.90;1.70;;;8.60;99.90;;;;;;4142474;28;20030;-78
2022/12/28 04:22:24;;;;;;;9.47;2.20;;;8.60;99.90;;;;;;4143272;28;20029;-77
2022/12/28 04:24:24;;;;;;;5.93;1.95;;;8.60;99.90;;;;;;4143372;28;20440;-77
2022/12/28 04:26:25;;;;;;;3.60;1.48;;;8.70;99.90;;;;;;4141319;28;20084;-77
2022/12/28 04:28:25;;;;;;;2.80;1.60;;;8.70;99.90;;;;;;4143647;28;20040;-77
2022/12/28 04:30:26;;;;;;;5.68;1.90;;;8.70;99.90;;;;;;4142539;28;20035;-76
2022/12/28 04:32:27;;;;;;;4.00;1.88;;;8.60;99.90;;;;;;4138778;28;20120;-75
2022/12/28 04:34:28;;;;;;;6.68;2.10;;;8.60;99.90;;;;;;4143724;28;20033;-74
2022/12/28 04:36:29;;;;;;;5.43;1.95;;;8.60;99.90;;;;;;4141514;28;20095;-75
2022/12/28 04:38:29;;;;;;;2.17;1.70;;;8.60;99.90;;;;;;4143714;28;20041;-75
2022/12/28 04:40:30;;;;;;;3.13;1.67;;;8.60;99.90;;;;;;4141285;28;20038;-75
2022/12/28 04:42:31;;;;;;;4.43;1.98;;;8.60;99.90;;;;;;4140571;28;20041;-76
2022/12/28 04:44:32;;;;;;;3.38;1.40;;;8.60;99.90;;;;;;4141684;28;20050;-76
2022/12/28 04:46:32;;;;;;;4.43;1.80;;;8.60;99.90;;;;;;4140127;28;20092;-76
2022/12/28 04:48:33;;;;;;;4.22;1.95;;;8.60;99.90;;;;;;4143925;28;20385;-76
2022/12/28 04:50:35;;;;;;;4.32;1.83;;;8.60;99.90;;;;;;4141748;28;20049;-77
2022/12/28 04:52:36;;;;;;;4.72;1.65;;;8.60;99.90;;;;;;4142949;28;20041;-76
2022/12/28 04:54:37;;;;;;;4.03;1.60;;;8.60;99.90;;;;;;4143698;28;20057;-75
2022/12/28 04:56:37;;;;;;;4.40;1.73;;;8.60;99.90;;;;;;4141770;28;20033;-76
2022/12/28 04:58:38;;;;;;;4.45;1.92;;;8.60;99.90;;;;;;4142722;28;20030;-75
2022/12/28 05:00:39;;;;;;;3.85;1.80;;;8.60;99.90;;;;;;4139284;28;20678;-75
2022/12/28 05:02:39;;;;;;;7.05;1.95;;;8.60;99.90;;;;;;4141261;28;20026;-76
2022/12/28 05:04:40;;;;;;;8.02;2.05;;;8.70;99.90;;;;;;4142506;28;20054;-76
2022/12/28 05:06:41;;;;;;;3.00;1.70;;;8.70;99.90;;;;;;4142541;28;20569;-75
2022/12/28 05:08:42;;;;;;;3.42;1.50;;;8.70;99.90;;;;;;4143330;28;20362;-76
2022/12/28 05:10:42;;;;;;;2.63;1.63;;;8.70;99.90;;;;;;4143918;28;20041;-76
2022/12/28 05:12:43;;;;;;;3.85;1.58;;;8.70;99.90;;;;;;4144609;28;20099;-76
2022/12/28 05:14:43;;;;;;;2.60;1.42;;;8.70;99.90;;;;;;4145230;28;20030;-75
2022/12/28 05:16:44;;;;;;;4.55;1.55;;;8.70;99.90;;;;;;4143378;28;20030;-75
2022/12/28 05:18:45;;;;;;;6.05;1.80;;;8.80;99.90;;;;;;4144863;28;20144;-74
2022/12/28 05:20:45;;;;;;;6.10;1.52;;;8.80;99.90;;;;;;4146855;28;20034;-75
2022/12/28 05:22:46;;;;;;;4.05;1.70;;;8.80;99.90;;;;;;4145945;28;20116;-76
2022/12/28 05:24:46;;;;;;;5.40;1.67;;;8.80;99.90;;;;;;4145609;28;20064;-76
2022/12/28 05:26:47;;;;;;;3.95;1.70;;;8.80;99.90;;;;;;4143694;28;20404;-76
2022/12/28 05:28:48;;;;;;;6.40;1.83;;;8.80;99.90;;;;;;4146017;28;20475;-75
2022/12/28 05:30:50;;;;;;;2.05;1.30;;;8.90;99.90;;;;;;4143931;28;20121;-76
2022/12/28 05:32:50;;;;;;;4.95;2.17;;;8.90;99.90;;;;;;4144946;28;20437;-76
2022/12/28 05:34:51;;;;;;;3.15;1.33;;;8.90;99.90;;;;;;4144851;28;20037;-76
2022/12/28 05:36:51;;;;;;;2.75;1.35;;;8.90;99.90;;;;;;4145406;28;20038;-75
2022/12/28 05:38:53;;;;;;;4.53;1.45;;;8.90;99.90;;;;;;4142648;28;20030;-75
2022/12/28 05:40:54;;;;;;;7.07;2.13;;;8.90;99.90;;;;;;4143245;28;20033;-75
2022/12/28 05:42:55;;;;;;;4.25;1.60;;;8.90;99.90;;;;;;4143823;28;20040;-76
2022/12/28 05:44:55;;;;;;;3.03;1.67;;;8.90;99.90;;;;;;4146111;28;20038;-76
2022/12/28 05:46:56;;;;;;;3.92;1.80;;;8.90;99.90;;;;;;4143935;28;20033;-75
2022/12/28 05:48:57;;;;;;;3.97;1.60;;;8.90;99.90;;;;;;4146282;28;20033;-75
2022/12/28 05:51:02;;;;;;;6.20;1.90;;;8.80;99.90;;;;;;4144766;28;20401;-76
2022/12/28 05:53:03;;;;;;;6.03;1.63;;;8.80;99.90;;;;;;4144498;28;20129;-76
2022/12/28 05:55:03;;;;;;;2.35;1.50;;;8.80;99.90;;;;;;4146112;28;20038;-76
2022/12/28 05:57:04;;;;;;;4.25;1.30;;;8.80;99.90;;;;;;4142249;28;20542;-75
2022/12/28 05:59:06;;;;;;;3.40;1.30;;;8.70;99.90;;;;;;4145213;28;20149;-76
2022/12/28 06:01:18;;;;;;;4.57;1.65;;;8.80;99.90;;;;;;4141948;28;20099;-76
2022/12/28 06:03:19;;;;;;;4.55;1.73;;;8.70;99.90;;;;;;4144138;28;20033;-75
2022/12/28 06:05:19;;;;;;;5.78;1.95;;;8.80;99.90;;;;;;4144890;28;20113;-75
2022/12/28 06:07:20;;;;;;;4.00;1.77;;;8.70;99.90;;;;;;4145688;28;20517;-75
2022/12/28 06:09:21;;;;;;;2.75;1.50;;;8.80;99.90;;;;;;4144315;28;20037;-76
2022/12/28 06:11:24;;;;;;;5.43;1.40;;;8.70;99.90;;;;;;4143707;28;20084;-75
2022/12/28 06:13:24;;;;;;;5.68;1.80;;;8.70;99.90;;;;;;4144088;28;20527;-76
2022/12/28 06:15:25;;;;;;;3.05;1.38;;;8.70;99.90;;;;;;4145517;28;20034;-75
2022/12/28 06:17:26;;;;;;;5.13;1.67;;;8.80;99.90;;;;;;4145088;28;20030;-75
2022/12/28 06:19:26;;;;;;;3.05;1.60;;;8.70;99.90;;;;;;4145670;28;20029;-75
2022/12/28 06:21:29;;;;;;;2.70;1.63;;;8.70;99.90;;;;;;4141811;28;20124;-75
2022/12/28 06:23:30;;;;;;;;;;;8.70;99.90;;;;;;4139492;28;20029;-75
2022/12/28 06:25:30;;;;;;;3.33;1.42;;;8.70;99.90;;;;;;4138775;28;19976;-74
2022/12/28 06:27:31;;;;;;;2.45;1.40;;;8.70;99.90;;;;;;4143870;28;20046;-75
2022/12/28 06:29:31;;;;;;;4.03;1.50;;;8.80;99.90;;;;;;4143187;28;20034;-75
2022/12/28 06:31:35;;;;;;;4.18;1.40;;;8.70;99.90;;;;;;4141359;28;20042;-74
2022/12/28 06:33:35;;;;;;;4.53;1.58;;;8.70;99.90;;;;;;4144529;28;20112;-75
2022/12/28 06:35:40;;;;;;;3.65;1.60;;;8.70;99.90;;;;;;4143777;28;20085;-74
2022/12/28 06:37:40;;;;;;;5.78;1.27;;;8.80;99.90;;;;;;4143676;28;20075;-74
2022/12/28 06:39:41;;;;;;;3.63;1.35;;;8.80;99.90;;;;;;4145234;28;20046;-73
2022/12/28 06:41:42;;;;;;;3.85;1.45;;;8.80;99.90;;;;;;4142168;28;20026;-74
2022/12/28 06:43:43;;;;;;;3.58;1.50;;;8.80;99.90;;;;;;4143544;28;20045;-74
2022/12/28 06:45:54;;;;;;;4.07;1.42;;;8.80;99.90;;;;;;4140703;28;20049;-74
2022/12/28 06:47:54;;;;;;;2.95;1.00;;;8.80;99.90;;;;;;4145025;28;20042;-74
2022/12/28 06:49:55;;;;;;;2.80;1.38;;;8.80;99.90;;;;;;4144826;28;20061;-74
2022/12/28 06:51:55;;;;;;;4.68;1.40;;;8.70;99.90;;;;;;4143327;28;20030;-74
2022/12/28 06:53:56;;;;;;;3.10;1.20;;;8.70;99.90;;;;;;4140808;28;20122;-74
2022/12/28 06:56:00;;;;;;;3.85;1.35;;;8.70;99.90;;;;;;4144857;28;20038;-74
2022/12/28 06:58:00;;;;;;;3.92;1.30;;;8.70;99.90;;;;;;4140897;28;20034;-75
2022/12/28 07:00:01;;;;;;;2.60;1.40;;;8.80;99.90;;;;;;4137018;28;20045;-74
2022/12/28 07:02:01;;;;;;;3.05;1.38;;;8.80;99.90;;;;;;4135069;28;20073;-74
2022/12/28 07:04:04;;;;;;;6.18;1.63;;;8.70;99.90;;;;;;4141454;28;20100;-74
2022/12/28 07:06:05;;;;;;;;;;;8.70;99.90;;;;;;4143579;28;20049;-74
2022/12/28 07:08:05;;;;;;;5.20;1.55;;;8.80;99.90;;;;;;4140034;28;21359;-75
2022/12/28 07:10:06;;;;;;;5.82;1.60;;;8.80;99.90;;;;;;4141002;28;20120;-74
2022/12/28 07:12:07;;;;;;;2.65;1.17;;;8.70;99.90;;;;;;4143025;28;20048;-75
2022/12/28 07:14:07;;;;;;;1.88;1.00;;;8.80;99.90;;;;;;4143905;28;20056;-74
2022/12/28 07:16:28;;;;;;;3.47;1.17;;;8.70;99.90;;;;;;4143002;28;20092;-74
2022/12/28 07:18:30;;;;;;;2.67;1.20;;;8.80;99.90;;;;;;4142087;28;20385;-73
2022/12/28 07:20:30;;;;;;;1.48;1.10;;;8.80;99.90;;;;;;4132356;28;20658;-74
2022/12/28 07:22:31;;;;;;;3.80;1.45;;;8.80;99.90;;;;;;4141667;28;20062;-74
2022/12/28 07:24:31;;;;;;;2.00;1.00;;;8.80;99.90;;;;;;4140728;28;20463;-73
2022/12/28 07:26:34;;;;;;;2.72;1.05;;;8.80;99.90;;;;;;4142225;28;20109;-75
2022/12/28 07:28:36;;;;;;;;;;;8.80;99.90;;;;;;4143502;28;20029;-75
2022/12/28 07:30:36;;;;;;;2.67;1.25;;;8.80;99.90;;;;;;4141381;28;19917;-76
2022/12/28 07:32:37;;;;;;;2.67;1.60;;;8.80;99.90;;;;;;4138957;28;20045;-76
2022/12/28 07:34:38;;;;;;;8.63;1.35;;;8.80;99.90;;;;;;4143220;28;20057;-76
2022/12/28 07:36:38;;;;;;;2.88;1.42;;;8.80;99.90;;;;;;4140675;28;20037;-75
2022/12/28 07:38:39;;;;;;;3.17;1.25;;;8.90;99.90;;;;;;4142028;28;20053;-77
2022/12/28 07:40:40;;;;;;;1.85;1.10;;;8.80;99.90;;;;;;4142178;28;20045;-76
2022/12/28 07:42:40;;;;;;;6.57;1.35;;;8.80;99.90;;;;;;4139717;28;20038;-76
2022/12/28 07:44:41;;;;;;;3.47;0.88;;;8.90;99.90;;;;;;4138303;28;20041;-76
2022/12/28 07:46:42;;;;;;;2.13;1.27;;;8.90;99.90;;;;;;4133929;28;20034;-76
2022/12/28 07:48:43;;;;;;;1.98;0.77;;;8.90;99.90;;;;;;4126043;28;20038;-77
2022/12/28 07:50:44;;;;;;;1.90;1.10;;;8.90;99.90;;;;;;4132038;28;20038;-77
2022/12/28 07:52:44;;;;;;;8.43;1.33;;;8.90;99.90;;;;;;4140723;28;20042;-76
2022/12/28 07:54:45;;;;;;;2.25;1.13;;;8.90;99.90;;;;;;4128445;28;20083;-76
2022/12/28 07:56:46;;;;;;;5.28;1.25;;;8.90;99.90;;;;;;4137846;28;20358;-77
2022/12/28 07:58:48;;;;;;;4.57;1.35;;;9.00;99.90;;;;;;4147899;28;20512;-77
2022/12/28 08:00:50;;;;;;;0.98;0.75;;;9.00;99.90;;;;;;4138987;28;20052;-77
2022/12/28 08:02:54;;;;;;;2.13;1.00;;;9.00;99.90;;;;;;4137621;28;20030;-77
2022/12/28 08:04:55;;;;;;;4.07;1.48;;;9.00;99.90;;;;;;4129514;28;20561;-78
2022/12/28 08:06:55;;;;;;;3.95;1.20;;;9.00;99.90;;;;;;4136754;28;20030;-77
2022/12/28 08:08:59;;;;;;;1.83;1.00;;;9.10;99.90;;;;;;4143283;28;20033;-77
2022/12/28 08:11:09;;;;;;;3.78;1.48;;;9.10;99.90;;;;;;4129304;28;20053;-78
2022/12/28 08:13:09;;;;;;;1.33;0.88;;;9.10;99.90;;;;;;4139788;28;20053;-77
2022/12/28 08:15:10;;;;;;;1.42;1.10;;;9.10;99.90;;;;;;4141175;28;20030;-77
2022/12/28 08:17:11;;;;;;;2.35;1.17;;;9.10;99.90;;;;;;4143375;28;20040;-78
2022/12/28 08:19:11;;;;;;;6.25;1.30;;;9.20;99.90;;;;;;4143163;28;20034;-78
2022/12/28 08:21:17;;;;;;;2.90;1.27;;;9.20;99.90;;;;;;4142296;28;20041;-77
2022/12/28 08:23:18;;;;;;;2.90;0.80;;;9.20;99.90;;;;;;4137397;28;20048;-75
2022/12/28 08:25:18;;;;;;;2.50;0.93;;;9.20;99.90;;;;;;4142314;28;20492;-77
2022/12/28 08:27:19;;;;;;;2.55;0.88;;;9.20;99.90;;;;;;4142401;28;20462;-75
2022/12/28 08:29:21;;;;;;;2.67;1.20;;;9.20;99.90;;;;;;4143220;28;20036;-77
2022/12/28 08:31:24;;;;;;;2.20;0.82;;;9.20;99.90;;;;;;4136294;28;20100;-77
2022/12/28 08:33:24;;;;;;;5.05;1.33;;;9.20;99.90;;;;;;4141014;28;20464;-77
2022/12/28 08:35:25;;;;;;;1.98;0.82;;;9.20;99.90;;;;;;4142597;28;20045;-77
2022/12/28 08:37:25;;;;;;;3.67;1.00;;;9.20;99.90;;;;;;4145888;28;20034;-78
2022/12/28 08:39:26;;;;;;;2.55;0.90;;;9.30;99.90;;;;;;4143307;28;20042;-77
2022/12/28 08:41:28;;;;;;;1.90;0.82;;;9.30;99.90;;;;;;4142585;28;20061;-77
2022/12/28 08:43:29;;;;;;;2.70;1.05;;;9.30;99.90;;;;;;4142777;28;20034;-78
2022/12/28 08:45:30;;;;;;;6.53;1.73;;;9.30;99.90;;;;;;4142425;28;20508;-78
2022/12/28 08:47:31;;;;;;;3.42;1.10;;;9.30;99.90;;;;;;4146221;28;20049;-77
2022/12/28 08:49:32;;;;;;;5.50;1.23;;;9.30;99.90;;;;;;4146813;28;20040;-79
2022/12/28 08:51:34;;;;;;;2.58;0.90;;;9.30;99.90;;;;;;4146240;28;20034;-77
2022/12/28 08:53:35;;;;;;;2.22;0.88;;;9.30;99.90;;;;;;4145223;28;20036;-79
2022/12/28 08:55:36;;;;;;;2.83;1.08;;;9.30;99.90;;;;;;4177390;28;20041;-78
2022/12/28 08:57:36;;;;;;;3.55;1.20;;;9.30;99.90;;;;;;4146390;28;20125;-78
2022/12/28 08:59:37;;;;;;;2.95;0.95;;;9.30;99.90;;;;;;4145326;28;20114;-78
2022/12/28 09:01:38;;;;;;;2.08;1.13;;;9.40;99.90;;;;;;4143748;28;20073;-79
2022/12/28 09:03:45;;;;;;;3.00;1.20;;;9.40;99.90;;;;;;4145335;28;20512;-78
2022/12/28 09:05:46;;;;;;;1.70;1.00;;;9.40;99.90;;;;;;4144764;28;20080;-78
2022/12/28 09:07:46;;;;;;;3.00;1.17;;;9.40;99.90;;;;;;4146261;28;20026;-78
2022/12/28 09:09:47;;;;;;;1.70;1.00;;;9.40;99.90;;;;;;4143415;28;20049;-78
2022/12/28 09:11:48;;;;;;;1.90;0.80;;;9.40;99.90;;;;;;4144200;28;20030;-78
2022/12/28 09:13:49;;;;;;;4.78;1.15;;;9.40;99.90;;;;;;4137634;28;20069;-73
2022/12/28 09:15:58;;;;;;;2.70;1.13;;;9.40;99.90;;;;;;4137721;28;20041;-77
2022/12/28 09:17:58;;;;;;;3.53;0.90;;;9.50;99.90;;;;;;4144150;28;20038;-76
2022/12/28 09:19:59;;;;;;;2.72;1.05;;;9.50;99.90;;;;;;4147102;28;20034;-77
2022/12/28 09:21:59;;;;;;;3.15;0.90;;;9.50;99.90;;;;;;4143994;28;20037;-78
2022/12/28 09:24:00;;;;;;;2.03;1.10;;;9.50;99.90;;;;;;4143101;28;20840;-78
2022/12/28 09:26:13;;;;;;;1.48;0.70;;;9.50;99.90;;;;;;4143382;28;20070;-78
2022/12/28 09:28:14;;;;;;;4.35;0.90;;;9.50;99.90;;;;;;4145445;28;20061;-77
2022/12/28 09:30:14;;;;;;;1.60;1.00;;;9.50;99.90;;;;;;4141572;28;20404;-77
2022/12/28 09:32:15;;;;;;;1.33;0.70;;;9.60;99.90;;;;;;4144485;28;20026;-78
2022/12/28 09:34:16;;;;;;;1.05;0.90;;;9.60;99.90;;;;;;4144837;28;20041;-78
2022/12/28 09:36:18;;;;;;;3.30;0.93;;;9.60;99.90;;;;;;4148674;28;20400;-78
2022/12/28 09:38:19;;;;;;;2.08;1.10;;;9.60;99.90;;;;;;4146482;28;20440;-71
2022/12/28 09:40:20;;;;;;;1.23;0.80;;;9.60;99.90;;;;;;4145618;28;20033;-77
2022/12/28 09:42:25;;;;;;;4.03;0.90;;;9.60;99.90;;;;;;4146761;28;20579;-78
2022/12/28 09:44:48;;;;;;;2.40;0.80;;;9.70;99.90;;;;;;4143476;28;20137;-78
2022/12/28 09:47:16;;;;;;;5.45;0.93;;;9.70;99.90;;;;;;4146245;28;20512;-70
2022/12/28 09:49:19;;;;;;;1.90;0.60;;;9.60;99.90;;;;;;4148802;28;20437;-78
2022/12/28 09:51:28;;;;;;;1.15;0.70;;;9.70;99.90;;;;;;4146543;28;20041;-77
2022/12/28 09:53:31;;;;;;;3.72;0.82;;;9.70;99.90;;;;;;4146832;28;20026;-78
2022/12/28 09:55:33;;;;;;;3.55;0.95;;;9.70;99.90;;;;;;4148076;28;20041;-78
2022/12/28 09:57:38;;;;;;;1.90;0.68;;;9.70;99.90;;;;;;4150788;28;20049;-79
2022/12/28 09:59:39;;;;;;;1.85;0.80;;;9.70;99.90;;;;;;4150785;28;20038;-78
2022/12/28 10:01:43;;;;;;;1.25;0.70;;;9.80;99.90;;;;;;4148290;28;20053;-78
2022/12/28 10:03:44;;;;;;;2.50;0.82;;;9.80;99.90;;;;;;4147500;28;20053;-77
2022/12/28 10:05:45;;;;;;;1.57;0.73;;;9.80;99.90;;;;;;4149270;28;20042;-78
2022/12/28 10:07:46;;;;;;;1.17;0.60;;;9.80;99.90;;;;;;4148498;28;20038;-78
2022/12/28 10:09:47;;;;;;;3.05;0.93;;;9.80;99.90;;;;;;4153393;28;20065;-78
2022/12/28 10:11:48;;;;;;;1.50;0.70;;;9.90;99.90;;;;;;4155358;28;20507;-78
2022/12/28 10:13:55;;;;;;;1.90;0.77;;;9.80;99.90;;;;;;4155131;28;20041;-78
2022/12/28 10:15:56;;;;;;;4.18;1.25;;;9.90;99.90;;;;;;4154377;28;20046;-79
2022/12/28 10:17:57;;;;;;;2.58;0.90;;;9.90;99.90;;;;;;4155920;28;20026;-78
2022/12/28 10:19:58;;;;;;;2.15;0.80;;;9.80;99.90;;;;;;4150364;28;20042;-78
2022/12/28 10:22:05;;;;;;;1.58;0.90;;;9.90;99.90;;;;;;4148739;28;20397;-78
2022/12/28 10:24:07;;;;;;;2.15;0.75;;;9.90;99.90;;;;;;4148076;28;20030;-79
2022/12/28 10:26:15;;;;;;;2.95;0.60;;;9.90;99.90;;;;;;4152684;28;20050;-78
2022/12/28 10:28:16;;;;;;;1.40;0.70;;;9.90;99.90;;;;;;4149439;28;20168;-79
2022/12/28 10:30:25;;;;;;;2.33;0.80;;;9.90;99.90;;;;;;4142992;28;20037;-78
2022/12/28 10:32:26;;;;;;;0.63;0.63;;;9.90;99.90;;;;;;4143557;28;20033;-79
2022/12/28 10:34:28;;;;;;;0.93;0.55;;;10.00;99.90;;;;;;4145196;28;20038;-79
2022/12/28 10:36:35;;;;;;;2.72;0.80;;;9.90;99.90;;;;;;4144350;28;20427;-79
2022/12/28 10:38:37;;;;;;;1.70;0.82;;;9.90;99.90;;;;;;4144026;28;20033;-79
2022/12/28 10:40:41;;;;;;;2.00;0.88;;;10.00;99.90;;;;;;4143532;28;20110;-78
2022/12/28 10:42:42;;;;;;;2.33;0.90;;;10.00;99.90;;;;;;4141661;28;20040;-78
2022/12/28 10:44:47;;;;;;;0.70;0.70;;;10.00;99.90;;;;;;4140554;28;20110;-78
2022/12/28 10:46:58;;;;;;;0.98;0.52;;;10.00;99.90;;;;;;4142313;28;20042;-79
2022/12/28 10:49:02;;;;;;;1.25;0.65;;;10.00;99.90;;;;;;4146431;28;20033;-80
2022/12/28 10:51:24;;;;;;;1.23;0.57;;;10.10;99.90;;;;;;4142863;28;20484;-80
2022/12/28 10:53:45;;;;;;;1.80;0.77;;;10.10;99.90;;;;;;4140406;28;20084;-80
2022/12/28 10:55:46;;;;;;;5.47;0.70;;;10.10;99.90;;;;;;4139699;28;20486;-80
2022/12/28 10:57:46;;;;;;;4.57;0.90;;;10.10;99.90;;;;;;4136896;28;20117;-79
2022/12/28 10:59:48;;;;;;;6.25;1.33;;;10.10;99.90;;;;;;4123736;28;20497;-79
2022/12/28 11:01:49;;;;;;;2.28;0.80;;;10.10;99.90;;;;;;4134845;28;20035;-81
2022/12/28 11:03:55;;;;;;;4.85;0.70;;;10.20;99.90;;;;;;4134579;28;20036;-74
2022/12/28 11:06:19;;;;;;;1.83;0.70;;;10.10;99.90;;;;;;4136411;28;20591;-81
2022/12/28 11:08:19;;;;;;;2.88;0.90;;;10.20;99.90;;;;;;4124425;28;20569;-75
2022/12/28 11:10:26;;;;;;;1.95;0.80;;;10.20;99.90;;;;;;4127287;28;20111;-77
2022/12/28 11:12:29;;;;;;;1.45;0.85;;;10.20;99.90;;;;;;4126862;28;20130;-81